Time;durP1;ratioP1;P1;durP2;ratioP2;P2;SDS_P1;SDS_P2;PMS_P1;PMS_P2;Temp;Humidity;BMP_temperature;BMP_pressure;BME280_temperature;BME280_humidity;BME280_pressure;Samples;Min_cycle;Max_cycle;Signal;HPM_P1;HPM_P2
2022/12/31 00:00:27;;;;;;;2.33;2.13;;;;;;;10.80;97.68;100123.91;6006247;29;20341;-66
2022/12/31 00:03:47;;;;;;;2.30;2.13;;;;;;;10.91;97.27;100149.78;6009505;29;20234;-67
2022/12/31 00:07:08;;;;;;;2.10;1.93;;;;;;;10.94;97.55;100144.06;6005325;29;20239;-66
2022/12/31 00:10:33;;;;;;;4.37;2.60;;;;;;;11.17;96.09;100146.09;5994779;29;20238;-65
2022/12/31 00:13:54;;;;;;;2.33;2.13;;;;;;;11.13;96.41;100150.13;6010804;29;20521;-66
2022/12/31 00:17:15;;;;;;;2.40;2.20;;;;;;;11.15;96.52;100153.50;6014061;29;20227;-66
2022/12/31 00:20:39;;;;;;;2.50;2.30;;;;;;;11.16;95.56;100151.63;6014096;29;20563;-65
2022/12/31 00:24:02;;;;;;;2.57;2.37;;;;;;;11.16;96.07;100157.03;6013660;29;20235;-66
2022/12/31 00:27:24;;;;;;;3.03;2.73;;;;;;;11.22;96.22;100168.03;6012849;29;20239;-66
2022/12/31 00:30:44;;;;;;;3.07;2.87;;;;;;;11.13;97.12;100160.06;6007969;29;20234;-66
2022/12/31 00:34:06;;;;;;;3.10;2.90;;;;;;;11.24;95.82;100167.91;6008864;29;20227;-67
2022/12/31 00:37:28;;;;;;;3.40;3.10;;;;;;;11.21;95.88;100173.59;6007042;29;20564;-66
2022/12/31 00:40:48;;;;;;;3.83;2.53;;;;;;;11.26;96.09;100176.69;6011459;29;20242;-66
2022/12/31 00:44:12;;;;;;;2.47;1.83;;;;;;;11.21;95.81;100170.91;6018166;29;20241;-65
2022/12/31 00:47:34;;;;;;;3.30;3.00;;;;;;;11.29;96.31;100173.66;6011997;29;20268;-67
2022/12/31 00:50:57;;;;;;;2.77;2.57;;;;;;;11.38;95.50;100167.31;6013480;29;20885;-66
2022/12/31 00:54:18;;;;;;;4.53;2.67;;;;;;;11.30;95.35;100179.91;6008831;29;20241;-66
2022/12/31 00:57:38;;;;;;;2.60;2.40;;;;;;;11.39;95.02;100171.69;6010049;29;20234;-67
2022/12/31 01:01:08;;;;;;;3.27;1.80;;;;;;;11.43;95.26;100166.84;6009995;29;20242;-66
2022/12/31 01:04:28;;;;;;;2.67;2.13;;;;;;;11.46;95.58;100178.16;6003658;29;20226;-66
2022/12/31 01:07:49;;;;;;;2.23;2.03;;;;;;;11.57;94.91;100174.34;6021669;29;20247;-66
2022/12/31 01:11:21;;;;;;;2.30;2.10;;;;;;;11.55;94.81;100188.03;6015419;29;20238;-65
2022/12/31 01:14:43;;;;;;;1.93;1.83;;;;;;;11.54;94.58;100186.31;6002701;29;20576;-67
2022/12/31 01:18:07;;;;;;;2.37;2.10;;;;;;;11.61;94.92;100187.38;6022824;29;20234;-67
2022/12/31 01:21:29;;;;;;;2.13;2.03;;;;;;;11.64;94.70;100197.03;6010810;29;22830;-66
2022/12/31 01:24:50;;;;;;;2.40;2.20;;;;;;;11.71;94.38;100209.75;6003711;29;20247;-65
2022/12/31 01:28:11;;;;;;;1.90;1.80;;;;;;;11.68;94.34;100207.34;6019521;29;20294;-66
2022/12/31 01:31:34;;;;;;;2.37;2.03;;;;;;;11.75;94.53;100212.97;6010443;29;20241;-65
2022/12/31 01:34:56;;;;;;;1.60;1.50;;;;;;;11.78;95.58;100213.50;5988645;29;20322;-65
2022/12/31 01:38:17;;;;;;;2.90;2.00;;;;;;;11.71;95.83;100217.00;6021353;29;20641;-66
2022/12/31 01:41:40;;;;;;;1.80;1.60;;;;;;;11.72;96.66;100221.41;5982938;29;20259;-66
2022/12/31 01:45:02;;;;;;;2.93;1.93;;;;;;;11.76;97.21;100229.03;5982403;29;20258;-66
2022/12/31 01:48:27;;;;;;;2.47;2.27;;;;;;;11.70;96.67;100220.72;6016151;29;20270;-65
2022/12/31 01:51:54;;;;;;;1.73;1.63;;;;;;;11.79;96.67;100231.38;6008998;29;20253;-67
2022/12/31 01:55:21;;;;;;;2.03;1.83;;;;;;;11.81;95.47;100206.91;6000048;29;20812;-66
2022/12/31 01:58:45;;;;;;;2.90;2.50;;;;;;;11.81;95.30;100212.31;6003835;29;20260;-67
2022/12/31 02:02:06;;;;;;;1.60;1.50;;;;;;;11.81;95.06;100206.91;6010656;29;20258;-66
2022/12/31 02:05:33;;;;;;;3.37;1.53;;;;;;;11.82;95.41;100208.63;5984499;29;20238;-66
2022/12/31 02:08:57;;;;;;;1.93;1.73;;;;;;;11.86;94.76;100215.41;5991126;29;20313;-65
2022/12/31 02:12:18;;;;;;;2.03;1.90;;;;;;;11.91;94.56;100211.19;6005535;29;20231;-66
2022/12/31 02:15:57;;;;;;;2.20;1.67;;;;;;;11.96;94.50;100203.47;5988690;29;20235;-65
2022/12/31 02:19:43;;;;;;;1.60;1.50;;;;;;;11.88;94.80;100210.69;5984337;29;20540;-66
2022/12/31 02:23:31;;;;;;;2.30;1.23;;;;;;;11.92;95.90;100206.66;6000402;29;20838;-66
2022/12/31 02:26:59;;;;;;;1.87;1.77;;;;;;;11.83;95.90;100213.84;5995909;29;20257;-66
2022/12/31 02:30:24;;;;;;;1.40;1.30;;;;;;;11.88;95.83;100205.28;5998294;29;20748;-66
2022/12/31 02:33:52;;;;;;;2.00;1.80;;;;;;;11.91;96.90;100203.09;5995448;29;20234;-66
2022/12/31 02:37:15;;;;;;;2.17;1.90;;;;;;;11.87;97.70;100200.88;6015834;29;22033;-67
2022/12/31 02:40:38;;;;;;;1.53;1.40;;;;;;;11.86;98.25;100201.91;6008588;29;20265;-66
2022/12/31 02:43:59;;;;;;;1.80;1.70;;;;;;;11.82;98.36;100209.47;6016136;29;20234;-66
2022/12/31 02:47:32;;;;;;;1.50;1.40;;;;;;;11.76;98.83;100204.72;6012918;29;22020;-66
2022/12/31 02:51:00;;;;;;;1.43;1.33;;;;;;;11.79;99.00;100198.97;6006063;29;20237;-66
2022/12/31 02:54:33;;;;;;;3.77;1.40;;;;;;;11.69;100.00;100194.69;6014064;29;20254;-67
2022/12/31 02:58:01;;;;;;;1.47;1.37;;;;;;;11.65;100.00;100196.84;6011815;29;20234;-65
2022/12/31 03:05:10;;;;;;;1.60;1.50;;;;;;;11.52;100.00;100209.91;6012164;29;21083;-66
2022/12/31 03:09:11;;;;;;;1.40;1.30;;;;;;;11.52;100.00;100209.06;6007027;29;20242;-67
2022/12/31 03:15:52;;;;;;;1.27;1.17;;;;;;;11.47;100.00;100219.50;6014768;29;20257;-66
2022/12/31 03:22:52;;;;;;;1.67;1.57;;;;;;;11.42;100.00;100206.47;6007745;29;20343;-67
2022/12/31 03:26:13;;;;;;;1.00;1.00;;;;;;;11.35;100.00;100205.41;6014660;29;20237;-66
2022/12/31 03:29:34;;;;;;;1.43;1.33;;;;;;;11.36;100.00;100206.25;5977364;29;20266;-65
2022/12/31 03:32:56;;;;;;;1.40;1.30;;;;;;;11.35;100.00;100202.72;6008366;29;20234;-66
2022/12/31 03:36:17;;;;;;;0.97;0.93;;;;;;;11.31;100.00;100205.88;6010876;29;20241;-66
2022/12/31 03:39:39;;;;;;;2.10;1.00;;;;;;;11.28;100.00;100210.59;5998423;29;20241;-67
2022/12/31 03:43:00;;;;;;;1.47;1.00;;;;;;;11.28;100.00;100207.06;6022575;29;20234;-67
2022/12/31 03:46:22;;;;;;;1.20;1.10;;;;;;;11.28;100.00;100201.66;6013062;29;20543;-67
2022/12/31 03:49:43;;;;;;;1.47;1.00;;;;;;;11.32;100.00;100218.38;6008181;29;20625;-65
2022/12/31 03:53:04;;;;;;;0.87;0.80;;;;;;;11.31;100.00;100212.13;6021767;29;20238;-66
2022/12/31 03:56:26;;;;;;;0.90;0.90;;;;;;;11.32;100.00;100213.84;6012880;29;21829;-66
2022/12/31 03:59:48;;;;;;;1.13;1.07;;;;;;;11.32;100.00;100210.28;5985271;29;20302;-65
2022/12/31 04:03:09;;;;;;;0.83;0.83;;;;;;;11.35;100.00;100208.09;6017013;29;20625;-65
2022/12/31 04:06:30;;;;;;;0.93;0.93;;;;;;;11.29;100.00;100206.03;6016218;29;20234;-66
2022/12/31 04:09:51;;;;;;;7.43;2.07;;;;;;;11.30;100.00;100212.28;6005509;29;20238;-66
2022/12/31 04:13:13;;;;;;;2.93;0.90;;;;;;;11.30;100.00;100209.59;6023047;29;20553;-67
2022/12/31 04:16:34;;;;;;;1.20;1.10;;;;;;;11.35;100.00;100215.38;6007794;29;20230;-68
2022/12/31 04:19:55;;;;;;;3.93;1.83;;;;;;;11.36;100.00;100219.75;6006981;29;20628;-67
2022/12/31 04:23:16;;;;;;;1.30;1.20;;;;;;;11.35;100.00;100229.69;6025022;29;20652;-66
2022/12/31 04:26:37;;;;;;;1.73;1.63;;;;;;;11.43;100.00;100237.03;6015304;29;20372;-66
2022/12/31 04:30:00;;;;;;;1.63;1.17;;;;;;;11.44;100.00;100233.31;5991542;29;20294;-66
2022/12/31 04:33:21;;;;;;;2.57;1.57;;;;;;;11.48;100.00;100246.34;6016342;29;20579;-65
2022/12/31 04:36:42;;;;;;;1.60;1.50;;;;;;;11.50;100.00;100246.16;6002445;29;20235;-65
2022/12/31 04:40:02;;;;;;;1.40;1.40;;;;;;;11.46;100.00;100247.50;5995033;29;20245;-67
2022/12/31 04:43:23;;;;;;;2.03;1.70;;;;;;;11.53;100.00;100251.25;6005010;29;20813;-66
2022/12/31 04:46:45;;;;;;;3.67;1.30;;;;;;;11.50;100.00;100243.47;6005865;29;20241;-67
2022/12/31 04:50:07;;;;;;;1.77;1.67;;;;;;;11.52;100.00;100254.94;6008193;29;20261;-66
2022/12/31 04:53:28;;;;;;;2.70;1.70;;;;;;;11.47;100.00;100233.00;6024155;29;20234;-67
2022/12/31 04:56:49;;;;;;;1.77;1.60;;;;;;;11.50;100.00;100216.47;6005433;29;20238;-67
2022/12/31 05:00:11;;;;;;;1.97;1.87;;;;;;;11.47;100.00;100239.25;5999263;29;20257;-66
2022/12/31 05:03:34;;;;;;;3.50;3.20;;;;;;;11.45;100.00;100238.56;6005104;29;20541;-66
2022/12/31 05:06:55;;;;;;;1.67;1.57;;;;;;;11.50;100.00;100244.31;6017731;29;20231;-67
2022/12/31 05:10:16;;;;;;;1.40;1.30;;;;;;;11.46;100.00;100245.66;6009323;29;20309;-66
2022/12/31 05:13:37;;;;;;;0.97;0.97;;;;;;;11.41;100.00;100237.16;6018257;29;20242;-66
2022/12/31 05:17:00;;;;;;;0.83;0.83;;;;;;;11.42;100.00;100214.59;6012821;29;20614;-66
2022/12/31 05:20:22;;;;;;;1.10;1.10;;;;;;;11.39;100.00;100206.78;5987987;29;20237;-66
2022/12/31 05:23:43;;;;;;;0.63;0.60;;;;;;;11.40;100.00;100194.16;6003613;29;20235;-66
2022/12/31 05:27:06;;;;;;;0.70;0.70;;;;;;;11.37;100.00;100181.00;6016973;29;20234;-65
2022/12/31 05:30:28;;;;;;;1.50;1.40;;;;;;;11.38;100.00;100177.25;6006719;29;20238;-66
2022/12/31 05:33:48;;;;;;;0.70;0.70;;;;;;;11.34;100.00;100173.19;6014856;29;20246;-65
2022/12/31 05:37:11;;;;;;;2.13;1.97;;;;;;;11.29;100.00;100162.88;6016833;29;20333;-66
2022/12/31 05:40:32;;;;;;;1.57;1.50;;;;;;;11.30;100.00;100182.63;6009419;29;20234;-66
2022/12/31 05:43:53;;;;;;;1.17;1.10;;;;;;;11.29;100.00;100184.44;6012583;29;20231;-65
2022/12/31 05:47:14;;;;;;;4.90;1.37;;;;;;;11.25;100.00;100202.81;6005316;29;20524;-65
2022/12/31 05:50:35;;;;;;;0.90;0.90;;;;;;;11.26;100.00;100222.56;6003746;29;20238;-66
2022/12/31 05:53:59;;;;;;;1.40;1.00;;;;;;;11.21;100.00;100244.59;6017200;29;20246;-65
2022/12/31 05:57:20;;;;;;;0.63;0.63;;;;;;;11.21;100.00;100246.44;5995449;29;20243;-66
2022/12/31 06:00:42;;;;;;;0.50;0.50;;;;;;;11.18;100.00;100236.81;5997889;29;20270;-65
2022/12/31 06:04:02;;;;;;;0.53;0.53;;;;;;;11.12;100.00;100256.31;6014647;29;20623;-65
2022/12/31 06:07:23;;;;;;;1.83;1.10;;;;;;;11.12;100.00;100250.06;6015503;29;20259;-66
2022/12/31 06:10:46;;;;;;;1.97;0.77;;;;;;;11.10;100.00;100249.38;6001729;29;20243;-66
2022/12/31 06:14:07;;;;;;;0.43;0.43;;;;;;;11.07;100.00;100247.00;6014625;29;20717;-66
2022/12/31 06:17:28;;;;;;;1.07;0.73;;;;;;;11.07;100.00;100268.59;6009542;29;20773;-66
2022/12/31 06:20:49;;;;;;;0.63;0.63;;;;;;;11.08;100.00;100264.88;6008058;29;20237;-66
2022/12/31 06:24:10;;;;;;;0.40;0.40;;;;;;;11.07;100.00;100272.13;6011999;29;20234;-67
2022/12/31 06:27:32;;;;;;;0.50;0.33;;;;;;;11.07;100.00;100280.22;6011308;29;20333;-66
2022/12/31 06:30:59;;;;;;;0.60;0.60;;;;;;;11.04;100.00;100290.47;6002515;29;20245;-67
2022/12/31 06:34:19;;;;;;;0.30;0.30;;;;;;;11.04;100.00;100276.97;6009372;29;20238;-67
2022/12/31 06:37:40;;;;;;;0.53;0.50;;;;;;;11.01;100.00;100288.91;6010041;29;20231;-66
2022/12/31 06:41:03;;;;;;;0.30;0.30;;;;;;;11.05;100.00;100278.69;6006849;29;20257;-66
2022/12/31 06:44:25;;;;;;;0.57;0.57;;;;;;;10.98;100.00;100270.34;5968773;29;20246;-66
2022/12/31 06:47:46;;;;;;;0.40;0.40;;;;;;;10.97;100.00;100275.91;5989795;29;20330;-66
2022/12/31 06:51:10;;;;;;;0.30;0.30;;;;;;;10.99;100.00;100282.00;5975203;29;20234;-67
2022/12/31 06:54:31;;;;;;;0.23;0.23;;;;;;;10.94;100.00;100260.03;5998013;29;20589;-67
2022/12/31 06:57:55;;;;;;;0.20;0.20;;;;;;;10.91;100.00;100276.53;5970315;29;20227;-66
2022/12/31 07:01:40;;;;;;;0.67;0.67;;;;;;;10.91;100.00;100261.16;5993099;29;20352;-66
2022/12/31 07:05:36;;;;;;;0.30;0.20;;;;;;;10.88;100.00;100257.94;5979570;29;20238;-66
2022/12/31 07:09:04;;;;;;;0.30;0.30;;;;;;;10.86;100.00;100255.41;5992675;29;20238;-67
2022/12/31 07:12:36;;;;;;;0.50;0.50;;;;;;;10.80;100.00;100253.31;5998601;29;20334;-66
2022/12/31 07:16:07;;;;;;;0.40;0.40;;;;;;;10.81;100.00;100265.78;6002695;29;20241;-65
2022/12/31 07:19:44;;;;;;;0.70;0.70;;;;;;;10.80;100.00;100277.59;5994712;29;20249;-66
2022/12/31 07:23:08;;;;;;;0.20;0.20;;;;;;;10.83;100.00;100290.75;5993648;29;20246;-65
2022/12/31 07:26:45;;;;;;;0.53;0.30;;;;;;;10.80;100.00;100303.69;5991081;29;20269;-66
2022/12/31 07:30:11;;;;;;;2.00;0.30;;;;;;;10.81;100.00;100292.75;5980695;29;21198;-66
2022/12/31 07:33:50;;;;;;;0.40;0.40;;;;;;;10.79;100.00;100283.13;6002504;29;20250;-66
2022/12/31 07:37:20;;;;;;;0.50;0.50;;;;;;;10.75;100.00;100295.22;5994134;29;20227;-65
2022/12/31 07:41:01;;;;;;;0.90;0.90;;;;;;;10.74;100.00;100291.69;5994170;29;20656;-64
2022/12/31 07:44:34;;;;;;;0.43;0.43;;;;;;;10.73;100.00;100303.44;6002032;29;20630;-66
2022/12/31 07:47:56;;;;;;;0.70;0.70;;;;;;;10.77;100.00;100293.22;5979325;29;20243;-65
2022/12/31 07:51:17;;;;;;;0.50;0.30;;;;;;;10.72;100.00;100300.91;5989231;29;20537;-66
2022/12/31 07:54:39;;;;;;;0.30;0.30;;;;;;;10.74;100.00;100305.16;5977421;29;20321;-66
2022/12/31 07:58:07;;;;;;;0.60;0.60;;;;;;;10.76;100.00;100305.00;5995892;29;20317;-65
2022/12/31 08:01:34;;;;;;;0.33;0.30;;;;;;;10.73;100.00;100297.22;6002729;29;20237;-67
2022/12/31 08:05:06;;;;;;;0.50;0.40;;;;;;;10.76;100.00;100305.00;5996027;29;20855;-67
2022/12/31 08:08:36;;;;;;;0.40;0.40;;;;;;;10.74;100.00;100307.00;6009521;29;20632;-66
2022/12/31 08:12:00;;;;;;;0.37;0.37;;;;;;;10.75;100.00;100316.78;6004397;29;20321;-67
2022/12/31 08:15:21;;;;;;;0.23;0.23;;;;;;;10.79;100.00;100318.16;5997101;29;20235;-67
2022/12/31 08:18:42;;;;;;;0.30;0.30;;;;;;;10.80;100.00;100293.78;5990900;29;20232;-69
2022/12/31 08:22:20;;;;;;;0.40;0.40;;;;;;;10.75;100.00;100296.06;5997586;29;20268;-68
2022/12/31 08:26:03;;;;;;;0.40;0.40;;;;;;;10.76;100.00;100305.84;6004902;29;20237;-68
2022/12/31 08:29:35;;;;;;;1.00;0.70;;;;;;;10.77;100.00;100309.38;6013216;29;20238;-67
2022/12/31 08:33:08;;;;;;;0.53;0.53;;;;;;;10.81;100.00;100300.00;6004881;29;20230;-69
2022/12/31 08:36:38;;;;;;;0.57;0.57;;;;;;;10.80;100.00;100301.00;6014848;29;20320;-68
2022/12/31 08:40:20;;;;;;;0.63;0.63;;;;;;;10.80;100.00;100320.72;6003000;29;20269;-68
2022/12/31 08:43:49;;;;;;;0.87;0.87;;;;;;;10.81;100.00;100316.16;6020430;29;20239;-69
2022/12/31 08:47:24;;;;;;;0.97;0.70;;;;;;;10.83;100.00;100312.31;6001374;29;20534;-69
2022/12/31 08:50:47;;;;;;;0.80;0.70;;;;;;;10.90;100.00;100318.81;6014439;29;20257;-68
2022/12/31 08:54:10;;;;;;;1.27;0.73;;;;;;;10.93;100.00;100315.78;6016320;29;20593;-68
2022/12/31 08:57:39;;;;;;;0.60;0.60;;;;;;;10.94;100.00;100316.66;6029122;29;20238;-68
2022/12/31 09:01:01;;;;;;;0.70;0.70;;;;;;;10.97;100.00;100300.19;5998661;29;20241;-68
2022/12/31 09:04:33;;;;;;;0.50;0.50;;;;;;;10.96;100.00;100290.38;6000431;29;20667;-67
2022/12/31 09:08:04;;;;;;;0.93;0.67;;;;;;;11.07;100.00;100287.47;5993224;29;20268;-69
2022/12/31 09:11:33;;;;;;;1.00;0.90;;;;;;;11.07;100.00;100296.41;5983204;29;20253;-68
2022/12/31 09:15:01;;;;;;;1.60;0.97;;;;;;;10.99;100.00;100303.56;5995817;29;20243;-68
2022/12/31 09:18:24;;;;;;;1.47;1.10;;;;;;;10.91;100.00;100309.72;5995769;29;20229;-67
2022/12/31 09:21:47;;;;;;;2.07;1.10;;;;;;;11.11;100.00;100307.75;6001485;29;20245;-68
2022/12/31 09:25:14;;;;;;;1.33;1.20;;;;;;;11.20;100.00;100307.66;5990228;29;20242;-68
2022/12/31 09:28:45;;;;;;;1.30;1.20;;;;;;;11.30;100.00;100318.38;6001330;29;20273;-68
2022/12/31 09:32:14;;;;;;;1.77;1.47;;;;;;;11.60;100.00;100311.72;5992813;29;20257;-71
2022/12/31 09:35:40;;;;;;;1.33;1.20;;;;;;;11.70;100.00;100317.91;5979661;29;20241;-69
2022/12/31 09:39:11;;;;;;;2.03;1.83;;;;;;;11.75;100.00;100323.69;5992217;29;20231;-69
2022/12/31 09:42:52;;;;;;;9.03;3.43;;;;;;;11.65;100.00;100314.78;5979658;29;20234;-70
2022/12/31 09:46:53;;;;;;;2.20;2.00;;;;;;;11.93;100.00;100329.91;5988239;29;20249;-70
2022/12/31 09:50:36;;;;;;;2.83;2.60;;;;;;;11.96;100.00;100324.16;5990335;29;20541;-67
2022/12/31 09:54:23;;;;;;;3.10;1.80;;;;;;;11.46;100.00;100339.25;5988516;29;20234;-68
2022/12/31 09:57:56;;;;;;;2.40;1.93;;;;;;;11.37;100.00;100334.81;5989342;29;20230;-68
2022/12/31 10:01:26;;;;;;;2.50;1.23;;;;;;;11.26;100.00;100336.72;5983734;29;20329;-67
2022/12/31 10:04:57;;;;;;;5.37;1.93;;;;;;;11.28;100.00;100321.22;5967353;29;20321;-66
2022/12/31 10:08:38;;;;;;;2.60;2.47;;;;;;;11.30;100.00;100302.19;5987791;29;20239;-66
2022/12/31 10:12:22;;;;;;;1.93;1.70;;;;;;;11.34;100.00;100311.69;5976143;29;20251;-68
2022/12/31 10:16:22;;;;;;;1.80;1.53;;;;;;;11.28;100.00;100310.41;5971399;29;20233;-67
2022/12/31 10:19:55;;;;;;;1.87;1.00;;;;;;;11.27;100.00;100306.03;5979372;29;20226;-65
2022/12/31 10:23:42;;;;;;;1.80;1.00;;;;;;;11.25;100.00;100305.34;5991160;29;20234;-68
2022/12/31 10:27:17;;;;;;;1.17;0.97;;;;;;;11.32;100.00;100300.19;5980573;29;20254;-68
2022/12/31 10:30:43;;;;;;;0.90;0.90;;;;;;;11.32;100.00;100302.03;5974639;29;20260;-66
2022/12/31 10:34:14;;;;;;;2.07;1.87;;;;;;;11.32;100.00;100302.88;5978141;29;20239;-68
2022/12/31 10:37:47;;;;;;;4.57;1.53;;;;;;;11.40;100.00;100294.00;5995469;29;20234;-68
2022/12/31 10:41:38;;;;;;;0.97;0.67;;;;;;;11.43;100.00;100285.59;5999166;29;20714;-68
2022/12/31 10:45:26;;;;;;;1.53;0.50;;;;;;;11.46;100.00;100280.72;5964113;29;20310;-68
2022/12/31 10:49:38;;;;;;;0.50;0.50;;;;;;;11.54;100.00;100288.88;5974754;29;20255;-66
2022/12/31 10:53:39;;;;;;;0.50;0.50;;;;;;;11.59;100.00;100299.22;5966167;29;20270;-67
2022/12/31 10:57:37;;;;;;;0.33;0.33;;;;;;;11.65;100.00;100290.50;5987323;29;20258;-68
2022/12/31 11:01:07;;;;;;;0.43;0.43;;;;;;;11.68;100.00;100285.66;5979012;29;20241;-67
2022/12/31 11:04:48;;;;;;;0.77;0.60;;;;;;;11.75;100.00;100288.56;5996541;29;20234;-67
2022/12/31 11:08:28;;;;;;;0.30;0.30;;;;;;;11.84;100.00;100293.88;6002107;29;20577;-66
2022/12/31 11:11:57;;;;;;;0.40;0.40;;;;;;;11.90;100.00;100274.34;6009450;29;20265;-67
2022/12/31 11:15:38;;;;;;;0.57;0.57;;;;;;;11.99;100.00;100283.34;6001449;29;20237;-66
2022/12/31 11:19:07;;;;;;;0.37;0.37;;;;;;;12.04;100.00;100289.09;6027347;29;20238;-66
2022/12/31 11:22:41;;;;;;;0.20;0.20;;;;;;;12.16;100.00;100295.91;6015178;29;20239;-67
2022/12/31 11:26:17;;;;;;;0.60;0.50;;;;;;;12.25;100.00;100300.38;6021603;29;20827;-68
2022/12/31 11:29:56;;;;;;;0.80;0.80;;;;;;;12.30;100.00;100297.19;6015139;29;20238;-67
2022/12/31 11:33:33;;;;;;;0.60;0.60;;;;;;;12.41;100.00;100291.50;6011019;29;20239;-65
2022/12/31 11:37:17;;;;;;;0.40;0.40;;;;;;;12.52;100.00;100310.97;6021079;29;20612;-67
2022/12/31 11:40:41;;;;;;;0.30;0.30;;;;;;;12.58;100.00;100313.03;6015422;29;20233;-67
2022/12/31 11:44:23;;;;;;;0.20;0.20;;;;;;;12.71;100.00;100328.78;6014122;29;20238;-68
2022/12/31 11:47:57;;;;;;;0.60;0.60;;;;;;;12.78;100.00;100335.25;6012765;29;20229;-67
2022/12/31 11:51:39;;;;;;;0.33;0.33;;;;;;;12.92;100.00;100336.47;6012830;29;20234;-67
2022/12/31 11:55:18;;;;;;;0.30;0.30;;;;;;;12.94;100.00;100310.09;6015216;29;20237;-66
2022/12/31 11:58:45;;;;;;;0.60;0.50;;;;;;;12.95;100.00;100322.63;6016917;29;20235;-68
2022/12/31 12:02:21;;;;;;;0.53;0.53;;;;;;;13.03;100.00;100323.50;6025368;29;20267;-68
2022/12/31 12:05:41;;;;;;;2.00;0.60;;;;;;;13.12;100.00;100303.56;5999906;29;20312;-68
2022/12/31 12:09:05;;;;;;;0.63;0.63;;;;;;;13.47;98.48;100305.16;6016290;29;20321;-67
2022/12/31 12:12:38;;;;;;;0.30;0.30;;;;;;;14.70;90.97;100271.19;6024120;29;20514;-67
2022/12/31 12:16:00;;;;;;;0.30;0.30;;;;;;;14.63;90.30;100267.47;6009372;29;20294;-67
2022/12/31 12:19:26;;;;;;;0.57;0.43;;;;;;;14.46;90.40;100275.88;6023227;29;20258;-67
2022/12/31 12:22:50;;;;;;;0.40;0.40;;;;;;;13.87;92.97;100278.03;6007626;29;20990;-68
2022/12/31 12:26:27;;;;;;;0.40;0.40;;;;;;;13.92;92.53;100263.97;6011468;29;20227;-67
2022/12/31 12:29:49;;;;;;;0.60;0.50;;;;;;;14.37;91.28;100288.63;6011974;29;20617;-67
2022/12/31 12:33:16;;;;;;;0.23;0.23;;;;;;;14.21;90.18;100256.94;6003723;29;20238;-68
2022/12/31 12:36:46;;;;;;;0.83;0.43;;;;;;;14.02;91.59;100287.16;6006180;29;21887;-68
2022/12/31 12:40:19;;;;;;;0.50;0.50;;;;;;;13.95;92.42;100286.16;5986391;29;20240;-67
2022/12/31 12:43:40;;;;;;;0.30;0.30;;;;;;;13.88;92.73;100301.41;6012623;29;20246;-65
2022/12/31 12:47:06;;;;;;;0.40;0.40;;;;;;;13.87;92.89;100279.91;6001671;29;20231;-66
2022/12/31 12:50:38;;;;;;;0.47;0.47;;;;;;;13.86;92.98;100254.66;6017904;29;20269;-70
2022/12/31 12:54:11;;;;;;;0.50;0.50;;;;;;;13.86;92.88;100261.94;6021830;29;20251;-68
2022/12/31 12:57:41;;;;;;;0.40;0.40;;;;;;;13.78;93.51;100273.66;6011774;29;20238;-68
2022/12/31 13:01:10;;;;;;;0.77;0.77;;;;;;;13.73;93.93;100275.16;6002861;29;20316;-68
2022/12/31 13:04:50;;;;;;;0.80;0.80;;;;;;;13.70;94.24;100275.53;6022073;29;20230;-67
2022/12/31 13:08:22;;;;;;;0.30;0.30;;;;;;;13.66;94.62;100282.31;6017628;29;20222;-68
2022/12/31 13:11:55;;;;;;;0.43;0.43;;;;;;;13.64;95.18;100291.44;6027251;29;20273;-67
2022/12/31 13:15:21;;;;;;;0.70;0.70;;;;;;;13.56;95.85;100283.31;5989148;29;22053;-66
2022/12/31 13:18:52;;;;;;;0.30;0.30;;;;;;;13.55;96.39;100297.88;6020047;29;20608;-67
2022/12/31 13:22:22;;;;;;;1.30;0.50;;;;;;;13.54;97.00;100295.31;6012029;29;20234;-67
2022/12/31 13:25:58;;;;;;;0.30;0.30;;;;;;;13.53;97.23;100308.03;5994528;29;20567;-67
2022/12/31 13:29:24;;;;;;;0.67;0.60;;;;;;;13.50;97.49;100304.81;5995223;29;20235;-67
2022/12/31 13:32:48;;;;;;;0.50;0.50;;;;;;;13.58;97.02;100304.78;6019872;29;20621;-67
2022/12/31 13:36:14;;;;;;;0.50;0.50;;;;;;;13.57;97.15;100313.94;6008948;29;20398;-67
2022/12/31 13:39:40;;;;;;;1.10;1.00;;;;;;;13.54;97.69;100287.19;6002449;29;20243;-67
2022/12/31 13:43:04;;;;;;;1.10;1.00;;;;;;;13.47;99.35;100307.88;5982097;29;20235;-68
2022/12/31 13:46:39;;;;;;;0.70;0.70;;;;;;;13.37;100.00;100313.41;6002211;29;20237;-67
2022/12/31 13:50:08;;;;;;;2.77;1.50;;;;;;;13.40;100.00;100293.28;6007224;29;20624;-68
2022/12/31 13:53:35;;;;;;;1.10;1.00;;;;;;;13.51;98.55;100284.84;6021084;29;20328;-67
2022/12/31 13:57:02;;;;;;;1.00;0.80;;;;;;;13.49;98.38;100317.53;6015655;29;20250;-67
2022/12/31 14:00:25;;;;;;;1.03;0.93;;;;;;;13.56;98.17;100331.19;6006045;29;20246;-66
2022/12/31 14:03:55;;;;;;;0.60;0.60;;;;;;;13.49;98.64;100320.22;6014140;29;20317;-68
2022/12/31 14:07:21;;;;;;;0.63;0.53;;;;;;;13.41;100.00;100325.59;6013313;29;20226;-68
2022/12/31 14:10:57;;;;;;;1.93;0.80;;;;;;;13.34;100.00;100321.91;6010110;29;20233;-67
2022/12/31 14:14:29;;;;;;;1.80;1.20;;;;;;;13.35;100.00;100322.75;6016706;29;20945;-66
2022/12/31 14:18:01;;;;;;;0.83;0.83;;;;;;;13.31;100.00;100333.03;6009253;29;20264;-67
2022/12/31 14:21:28;;;;;;;0.90;0.90;;;;;;;13.32;100.00;100313.09;6009909;29;20237;-67
2022/12/31 14:24:51;;;;;;;0.60;0.60;;;;;;;13.35;100.00;100314.63;5992376;29;20239;-67
2022/12/31 14:28:19;;;;;;;0.53;0.53;;;;;;;13.37;100.00;100324.25;6022141;29;20236;-67
2022/12/31 14:32:04;;;;;;;0.50;0.50;;;;;;;13.44;100.00;100332.56;6012080;29;20241;-66
2022/12/31 14:35:37;;;;;;;1.23;0.90;;;;;;;13.48;100.00;100318.50;6010182;29;20238;-67
2022/12/31 14:39:17;;;;;;;1.53;0.43;;;;;;;13.53;100.00;100339.69;6008394;29;20614;-66
2022/12/31 14:42:47;;;;;;;0.97;0.60;;;;;;;13.56;100.00;100328.50;6006079;29;20356;-67
2022/12/31 14:46:15;;;;;;;0.80;0.67;;;;;;;13.58;100.00;100334.59;6007515;29;20237;-68
2022/12/31 14:49:48;;;;;;;1.57;0.50;;;;;;;13.61;100.00;100324.28;6016416;29;20253;-67
2022/12/31 14:53:18;;;;;;;0.70;0.60;;;;;;;13.67;100.00;100333.59;5991678;29;20242;-68
2022/12/31 14:56:41;;;;;;;1.17;0.50;;;;;;;13.64;100.00;100331.22;6010875;29;20512;-67
2022/12/31 15:00:23;;;;;;;1.00;1.00;;;;;;;13.69;100.00;100350.50;6003596;29;20253;-68
2022/12/31 15:03:45;;;;;;;1.37;0.80;;;;;;;13.65;100.00;100335.63;6019755;29;20235;-68
2022/12/31 15:07:16;;;;;;;2.37;0.87;;;;;;;13.58;100.00;100345.41;6018762;29;20234;-67
2022/12/31 15:10:47;;;;;;;1.47;0.80;;;;;;;13.60;100.00;100356.97;6005798;29;20230;-67
2022/12/31 15:14:29;;;;;;;0.77;0.77;;;;;;;13.57;100.00;100377.09;6012707;29;20238;-67
2022/12/31 15:18:02;;;;;;;2.30;1.00;;;;;;;13.57;100.00;100360.84;6001329;29;20242;-67
2022/12/31 15:21:40;;;;;;;5.63;2.20;;;;;;;13.52;100.00;100356.94;6005014;29;20234;-67
2022/12/31 15:25:03;;;;;;;1.70;1.60;;;;;;;13.55;100.00;100370.16;6000452;29;20235;-66
2022/12/31 15:28:31;;;;;;;1.27;1.27;;;;;;;13.55;100.00;100371.00;6009356;29;20239;-66
2022/12/31 15:31:53;;;;;;;1.40;1.30;;;;;;;13.51;100.00;100382.34;6008792;29;20686;-68
2022/12/31 15:35:26;;;;;;;0.60;0.60;;;;;;;13.43;100.00;100383.16;6004009;29;20230;-68
2022/12/31 15:38:48;;;;;;;1.77;0.90;;;;;;;13.38;100.00;100381.97;6017487;29;20231;-68
2022/12/31 15:42:40;;;;;;;0.83;0.83;;;;;;;13.34;100.00;100403.13;6012472;29;20231;-67
2022/12/31 15:46:04;;;;;;;1.87;1.20;;;;;;;13.31;100.00;100391.75;6004906;29;20265;-67
2022/12/31 15:49:26;;;;;;;1.17;0.83;;;;;;;13.26;100.00;100386.00;6012697;29;20234;-68
2022/12/31 15:52:52;;;;;;;1.03;0.93;;;;;;;13.23;100.00;100399.84;6005354;29;21146;-67
2022/12/31 15:56:19;;;;;;;2.87;1.27;;;;;;;13.19;100.00;100404.75;6009775;29;20797;-67
2022/12/31 15:59:41;;;;;;;1.73;1.10;;;;;;;13.20;100.00;100411.88;5998723;29;20239;-67
2022/12/31 16:03:03;;;;;;;1.00;1.00;;;;;;;13.25;100.00;100397.81;6011157;29;20238;-68
2022/12/31 16:06:29;;;;;;;0.50;0.50;;;;;;;13.23;100.00;100416.94;6016831;29;20234;-68
2022/12/31 16:09:53;;;;;;;0.60;0.60;;;;;;;13.17;100.00;100408.63;6000530;29;20369;-68